sensor_id;sensor_type;location;lat;lon;timestamp;temperature;humidity
24217;DHT22;12356;49.386;8.688;2023-05-23T00:00:33;19.10;64.60
24217;DHT22;12356;49.386;8.688;2023-05-23T00:03:03;19.10;64.60
24217;DHT22;12356;49.386;8.688;2023-05-23T00:05:34;19.10;64.30
24217;DHT22;12356;49.386;8.688;2023-05-23T00:08:04;19.10;64.40
24217;DHT22;12356;49.386;8.688;2023-05-23T00:10:35;19.10;64.60
24217;DHT22;12356;49.386;8.688;2023-05-23T00:13:05;19.00;64.60
24217;DHT22;12356;49.386;8.688;2023-05-23T00:15:39;19.00;64.60
24217;DHT22;12356;49.386;8.688;2023-05-23T00:18:11;19.00;64.90
24217;DHT22;12356;49.386;8.688;2023-05-23T00:20:42;19.00;64.90
24217;DHT22;12356;49.386;8.688;2023-05-23T00:23:13;19.00;64.60
24217;DHT22;12356;49.386;8.688;2023-05-23T00:25:49;19.00;64.40
24217;DHT22;12356;49.386;8.688;2023-05-23T00:28:22;19.00;64.40
24217;DHT22;12356;49.386;8.688;2023-05-23T00:30:52;19.00;64.00
24217;DHT22;12356;49.386;8.688;2023-05-23T00:33:23;19.00;63.90
24217;DHT22;12356;49.386;8.688;2023-05-23T00:35:54;18.90;63.90
24217;DHT22;12356;49.386;8.688;2023-05-23T00:38:24;18.90;63.90
24217;DHT22;12356;49.386;8.688;2023-05-23T00:40:56;18.90;63.90
24217;DHT22;12356;49.386;8.688;2023-05-23T00:43:26;18.90;64.00
24217;DHT22;12356;49.386;8.688;2023-05-23T00:45:57;18.90;63.80
24217;DHT22;12356;49.386;8.688;2023-05-23T00:48:28;18.90;64.00
24217;DHT22;12356;49.386;8.688;2023-05-23T00:50:59;18.90;64.10
24217;DHT22;12356;49.386;8.688;2023-05-23T00:53:30;18.90;64.20
24217;DHT22;12356;49.386;8.688;2023-05-23T00:56:01;18.90;63.90
24217;DHT22;12356;49.386;8.688;2023-05-23T00:58:31;18.90;63.80
24217;DHT22;12356;49.386;8.688;2023-05-23T01:01:02;18.90;63.80
24217;DHT22;12356;49.386;8.688;2023-05-23T01:03:33;18.80;63.80
24217;DHT22;12356;49.386;8.688;2023-05-23T01:06:03;18.80;63.80
24217;DHT22;12356;49.386;8.688;2023-05-23T01:08:34;18.80;63.90
24217;DHT22;12356;49.386;8.688;2023-05-23T01:11:14;18.70;63.90
24217;DHT22;12356;49.386;8.688;2023-05-23T01:13:51;18.80;63.80
24217;DHT22;12356;49.386;8.688;2023-05-23T01:16:38;18.80;63.90
24217;DHT22;12356;49.386;8.688;2023-05-23T01:22:02;18.70;63.60
24217;DHT22;12356;49.386;8.688;2023-05-23T01:27:52;18.70;63.80
24217;DHT22;12356;49.386;8.688;2023-05-23T01:30:24;18.70;63.90
24217;DHT22;12356;49.386;8.688;2023-05-23T01:32:58;18.60;63.60
24217;DHT22;12356;49.386;8.688;2023-05-23T01:35:30;18.60;63.50
24217;DHT22;12356;49.386;8.688;2023-05-23T01:38:01;18.60;63.60
24217;DHT22;12356;49.386;8.688;2023-05-23T01:40:32;18.60;63.70
24217;DHT22;12356;49.386;8.688;2023-05-23T01:43:03;18.60;63.60
24217;DHT22;12356;49.386;8.688;2023-05-23T01:45:34;18.60;63.70
24217;DHT22;12356;49.386;8.688;2023-05-23T01:48:04;18.60;64.10
24217;DHT22;12356;49.386;8.688;2023-05-23T01:50:35;18.60;63.80
24217;DHT22;12356;49.386;8.688;2023-05-23T01:53:07;18.50;63.70
24217;DHT22;12356;49.386;8.688;2023-05-23T01:55:40;18.50;63.60
24217;DHT22;12356;49.386;8.688;2023-05-23T01:58:11;18.50;63.50
24217;DHT22;12356;49.386;8.688;2023-05-23T02:00:41;18.50;63.50
24217;DHT22;12356;49.386;8.688;2023-05-23T02:03:12;18.40;63.50
24217;DHT22;12356;49.386;8.688;2023-05-23T02:05:43;18.40;63.80
24217;DHT22;12356;49.386;8.688;2023-05-23T02:08:13;18.40;63.70
24217;DHT22;12356;49.386;8.688;2023-05-23T02:10:44;18.40;63.50
24217;DHT22;12356;49.386;8.688;2023-05-23T02:13:14;18.40;63.70
24217;DHT22;12356;49.386;8.688;2023-05-23T02:15:45;18.40;63.80
24217;DHT22;12356;49.386;8.688;2023-05-23T02:18:15;18.30;63.80
24217;DHT22;12356;49.386;8.688;2023-05-23T02:20:47;18.40;63.50
24217;DHT22;12356;49.386;8.688;2023-05-23T02:23:17;18.30;63.30
24217;DHT22;12356;49.386;8.688;2023-05-23T02:25:48;18.30;63.50
24217;DHT22;12356;49.386;8.688;2023-05-23T02:28:18;18.30;63.30
24217;DHT22;12356;49.386;8.688;2023-05-23T02:30:49;18.20;63.40
24217;DHT22;12356;49.386;8.688;2023-05-23T02:33:20;18.30;63.20
24217;DHT22;12356;49.386;8.688;2023-05-23T02:35:51;18.20;63.10
24217;DHT22;12356;49.386;8.688;2023-05-23T02:38:21;18.20;63.00
24217;DHT22;12356;49.386;8.688;2023-05-23T02:40:52;18.20;63.00
24217;DHT22;12356;49.386;8.688;2023-05-23T02:43:23;18.20;63.10
24217;DHT22;12356;49.386;8.688;2023-05-23T02:45:53;18.20;63.20
24217;DHT22;12356;49.386;8.688;2023-05-23T02:48:24;18.10;63.00
24217;DHT22;12356;49.386;8.688;2023-05-23T02:50:54;18.10;63.00
24217;DHT22;12356;49.386;8.688;2023-05-23T02:53:25;18.10;63.10
24217;DHT22;12356;49.386;8.688;2023-05-23T02:55:56;18.10;63.10
24217;DHT22;12356;49.386;8.688;2023-05-23T02:58:26;18.10;63.50
24217;DHT22;12356;49.386;8.688;2023-05-23T03:00:57;18.10;63.70
24217;DHT22;12356;49.386;8.688;2023-05-23T03:03:28;18.10;63.40
24217;DHT22;12356;49.386;8.688;2023-05-23T03:06:03;18.00;63.30
24217;DHT22;12356;49.386;8.688;2023-05-23T03:08:37;18.10;63.50
24217;DHT22;12356;49.386;8.688;2023-05-23T03:11:08;18.10;63.50
24217;DHT22;12356;49.386;8.688;2023-05-23T03:13:38;18.00;63.30
24217;DHT22;12356;49.386;8.688;2023-05-23T03:16:09;18.10;63.80
24217;DHT22;12356;49.386;8.688;2023-05-23T03:18:41;18.10;63.30
24217;DHT22;12356;49.386;8.688;2023-05-23T03:21:11;18.10;63.30
24217;DHT22;12356;49.386;8.688;2023-05-23T03:23:42;18.00;63.70
24217;DHT22;12356;49.386;8.688;2023-05-23T03:26:12;18.10;63.70
24217;DHT22;12356;49.386;8.688;2023-05-23T03:28:43;18.10;63.50
24217;DHT22;12356;49.386;8.688;2023-05-23T03:31:13;18.10;63.40
24217;DHT22;12356;49.386;8.688;2023-05-23T03:33:44;18.00;63.10
24217;DHT22;12356;49.386;8.688;2023-05-23T03:36:14;18.10;63.50
24217;DHT22;12356;49.386;8.688;2023-05-23T03:38:45;18.10;63.20
24217;DHT22;12356;49.386;8.688;2023-05-23T03:41:15;18.10;63.10
24217;DHT22;12356;49.386;8.688;2023-05-23T03:43:46;18.10;63.00
24217;DHT22;12356;49.386;8.688;2023-05-23T03:46:16;18.10;62.80
24217;DHT22;12356;49.386;8.688;2023-05-23T03:48:48;18.10;62.30
24217;DHT22;12356;49.386;8.688;2023-05-23T03:51:18;18.10;62.70
24217;DHT22;12356;49.386;8.688;2023-05-23T03:53:49;18.10;62.40
24217;DHT22;12356;49.386;8.688;2023-05-23T03:56:19;18.10;62.40
24217;DHT22;12356;49.386;8.688;2023-05-23T03:58:50;18.10;62.40
24217;DHT22;12356;49.386;8.688;2023-05-23T04:01:21;18.10;61.20
24217;DHT22;12356;49.386;8.688;2023-05-23T04:03:51;18.10;61.60
24217;DHT22;12356;49.386;8.688;2023-05-23T04:06:23;18.20;61.00
24217;DHT22;12356;49.386;8.688;2023-05-23T04:08:53;18.10;61.00
24217;DHT22;12356;49.386;8.688;2023-05-23T04:11:24;18.20;61.20
24217;DHT22;12356;49.386;8.688;2023-05-23T04:13:54;18.20;61.40
24217;DHT22;12356;49.386;8.688;2023-05-23T04:16:25;18.10;61.10
24217;DHT22;12356;49.386;8.688;2023-05-23T04:18:56;18.10;61.00
24217;DHT22;12356;49.386;8.688;2023-05-23T04:21:27;18.10;60.60
24217;DHT22;12356;49.386;8.688;2023-05-23T04:23:58;18.20;60.80
24217;DHT22;12356;49.386;8.688;2023-05-23T04:26:28;18.10;60.80
24217;DHT22;12356;49.386;8.688;2023-05-23T04:28:59;18.10;60.90
24217;DHT22;12356;49.386;8.688;2023-05-23T04:31:31;18.10;60.70
24217;DHT22;12356;49.386;8.688;2023-05-23T04:34:03;18.10;61.00
24217;DHT22;12356;49.386;8.688;2023-05-23T04:36:33;18.10;60.80
24217;DHT22;12356;49.386;8.688;2023-05-23T04:39:07;18.00;60.60
24217;DHT22;12356;49.386;8.688;2023-05-23T04:41:38;18.00;60.60
24217;DHT22;12356;49.386;8.688;2023-05-23T04:44:09;18.00;60.50
24217;DHT22;12356;49.386;8.688;2023-05-23T04:46:40;18.00;60.50
24217;DHT22;12356;49.386;8.688;2023-05-23T04:49:15;17.90;60.50
24217;DHT22;12356;49.386;8.688;2023-05-23T04:51:46;17.90;60.30
24217;DHT22;12356;49.386;8.688;2023-05-23T04:54:16;17.90;59.60
24217;DHT22;12356;49.386;8.688;2023-05-23T04:56:47;17.90;59.10
24217;DHT22;12356;49.386;8.688;2023-05-23T04:59:17;17.90;58.50
24217;DHT22;12356;49.386;8.688;2023-05-23T05:01:48;17.90;56.80
24217;DHT22;12356;49.386;8.688;2023-05-23T05:04:18;17.80;54.60
24217;DHT22;12356;49.386;8.688;2023-05-23T05:06:49;17.80;53.30
24217;DHT22;12356;49.386;8.688;2023-05-23T05:09:19;17.80;52.80
24217;DHT22;12356;49.386;8.688;2023-05-23T05:11:51;17.70;53.30
24217;DHT22;12356;49.386;8.688;2023-05-23T05:14:21;17.70;54.00
24217;DHT22;12356;49.386;8.688;2023-05-23T05:16:52;17.70;53.90
24217;DHT22;12356;49.386;8.688;2023-05-23T05:19:24;17.60;54.30
24217;DHT22;12356;49.386;8.688;2023-05-23T05:21:54;17.60;54.50
24217;DHT22;12356;49.386;8.688;2023-05-23T05:24:27;17.60;55.10
24217;DHT22;12356;49.386;8.688;2023-05-23T05:26:58;17.50;55.60
24217;DHT22;12356;49.386;8.688;2023-05-23T05:29:28;17.50;55.80
24217;DHT22;12356;49.386;8.688;2023-05-23T05:32:00;17.50;55.80
24217;DHT22;12356;49.386;8.688;2023-05-23T05:34:31;17.50;54.90
24217;DHT22;12356;49.386;8.688;2023-05-23T05:37:01;17.50;54.80
24217;DHT22;12356;49.386;8.688;2023-05-23T05:39:32;17.50;54.50
24217;DHT22;12356;49.386;8.688;2023-05-23T05:42:02;17.50;54.10
24217;DHT22;12356;49.386;8.688;2023-05-23T05:44:34;17.50;54.00
24217;DHT22;12356;49.386;8.688;2023-05-23T05:47:05;17.40;53.60
24217;DHT22;12356;49.386;8.688;2023-05-23T05:49:35;17.50;53.80
24217;DHT22;12356;49.386;8.688;2023-05-23T05:52:07;17.40;51.20
24217;DHT22;12356;49.386;8.688;2023-05-23T05:54:37;17.40;50.50
24217;DHT22;12356;49.386;8.688;2023-05-23T05:57:08;17.40;50.50
24217;DHT22;12356;49.386;8.688;2023-05-23T05:59:39;17.40;48.50
24217;DHT22;12356;49.386;8.688;2023-05-23T06:02:09;17.50;48.00
24217;DHT22;12356;49.386;8.688;2023-05-23T06:04:40;17.50;47.50
24217;DHT22;12356;49.386;8.688;2023-05-23T06:07:10;17.50;47.30
24217;DHT22;12356;49.386;8.688;2023-05-23T06:09:41;17.50;46.10
24217;DHT22;12356;49.386;8.688;2023-05-23T06:12:12;17.50;45.70
24217;DHT22;12356;49.386;8.688;2023-05-23T06:14:42;17.50;46.40
24217;DHT22;12356;49.386;8.688;2023-05-23T06:17:13;17.50;46.40
24217;DHT22;12356;49.386;8.688;2023-05-23T06:19:43;17.50;46.50
24217;DHT22;12356;49.386;8.688;2023-05-23T06:22:14;17.50;46.00
24217;DHT22;12356;49.386;8.688;2023-05-23T06:24:45;17.50;46.30
24217;DHT22;12356;49.386;8.688;2023-05-23T06:27:15;17.50;46.60
24217;DHT22;12356;49.386;8.688;2023-05-23T06:29:46;17.50;46.10
24217;DHT22;12356;49.386;8.688;2023-05-23T06:32:17;17.50;45.60
24217;DHT22;12356;49.386;8.688;2023-05-23T06:34:47;17.50;45.10
24217;DHT22;12356;49.386;8.688;2023-05-23T06:37:18;17.50;44.50
24217;DHT22;12356;49.386;8.688;2023-05-23T06:39:48;17.60;45.40
24217;DHT22;12356;49.386;8.688;2023-05-23T06:42:19;17.60;44.80
24217;DHT22;12356;49.386;8.688;2023-05-23T06:44:49;17.60;44.30
24217;DHT22;12356;49.386;8.688;2023-05-23T06:47:20;17.60;44.80
24217;DHT22;12356;49.386;8.688;2023-05-23T06:49:50;17.60;42.70
24217;DHT22;12356;49.386;8.688;2023-05-23T06:52:21;17.60;43.10
24217;DHT22;12356;49.386;8.688;2023-05-23T06:54:51;17.70;43.50
24217;DHT22;12356;49.386;8.688;2023-05-23T06:57:22;17.70;42.10
24217;DHT22;12356;49.386;8.688;2023-05-23T06:59:52;17.70;39.50
24217;DHT22;12356;49.386;8.688;2023-05-23T07:02:23;17.70;38.80
24217;DHT22;12356;49.386;8.688;2023-05-23T07:04:54;17.60;39.00
24217;DHT22;12356;49.386;8.688;2023-05-23T07:07:24;17.60;38.90
24217;DHT22;12356;49.386;8.688;2023-05-23T07:09:55;17.60;39.50
24217;DHT22;12356;49.386;8.688;2023-05-23T07:12:25;17.60;40.20
24217;DHT22;12356;49.386;8.688;2023-05-23T07:14:56;17.70;39.40
24217;DHT22;12356;49.386;8.688;2023-05-23T07:17:26;17.70;40.50
24217;DHT22;12356;49.386;8.688;2023-05-23T07:20:00;17.70;39.80
24217;DHT22;12356;49.386;8.688;2023-05-23T07:22:30;17.80;39.00
24217;DHT22;12356;49.386;8.688;2023-05-23T07:25:01;17.80;36.40
24217;DHT22;12356;49.386;8.688;2023-05-23T07:27:31;17.80;36.70
24217;DHT22;12356;49.386;8.688;2023-05-23T07:30:02;17.90;36.20
24217;DHT22;12356;49.386;8.688;2023-05-23T07:32:34;17.90;34.40
24217;DHT22;12356;49.386;8.688;2023-05-23T07:35:05;17.90;35.50
24217;DHT22;12356;49.386;8.688;2023-05-23T07:37:35;17.90;30.90
24217;DHT22;12356;49.386;8.688;2023-05-23T07:40:06;18.00;31.20
24217;DHT22;12356;49.386;8.688;2023-05-23T07:42:38;18.00;30.90
24217;DHT22;12356;49.386;8.688;2023-05-23T07:45:09;18.00;30.10
24217;DHT22;12356;49.386;8.688;2023-05-23T07:47:40;18.10;31.00
24217;DHT22;12356;49.386;8.688;2023-05-23T07:50:11;18.00;29.00
24217;DHT22;12356;49.386;8.688;2023-05-23T07:52:42;18.00;29.80
24217;DHT22;12356;49.386;8.688;2023-05-23T07:55:13;18.00;30.00
24217;DHT22;12356;49.386;8.688;2023-05-23T07:57:43;18.00;29.40
24217;DHT22;12356;49.386;8.688;2023-05-23T08:00:14;18.00;30.90
24217;DHT22;12356;49.386;8.688;2023-05-23T08:02:45;18.00;29.70
24217;DHT22;12356;49.386;8.688;2023-05-23T08:05:16;18.00;29.60
24217;DHT22;12356;49.386;8.688;2023-05-23T08:07:48;17.90;28.80
24217;DHT22;12356;49.386;8.688;2023-05-23T08:10:19;17.90;29.00
24217;DHT22;12356;49.386;8.688;2023-05-23T08:12:49;17.90;30.40
24217;DHT22;12356;49.386;8.688;2023-05-23T08:15:20;18.00;29.60
24217;DHT22;12356;49.386;8.688;2023-05-23T08:17:52;17.90;29.60
24217;DHT22;12356;49.386;8.688;2023-05-23T08:20:26;18.00;30.00
24217;DHT22;12356;49.386;8.688;2023-05-23T08:23:00;18.00;29.70
24217;DHT22;12356;49.386;8.688;2023-05-23T08:25:31;18.00;29.50
24217;DHT22;12356;49.386;8.688;2023-05-23T08:28:02;18.10;30.70
24217;DHT22;12356;49.386;8.688;2023-05-23T08:30:32;18.20;28.60
24217;DHT22;12356;49.386;8.688;2023-05-23T08:33:03;18.20;28.00
24217;DHT22;12356;49.386;8.688;2023-05-23T08:35:34;18.30;27.50
24217;DHT22;12356;49.386;8.688;2023-05-23T08:38:06;18.30;27.40
24217;DHT22;12356;49.386;8.688;2023-05-23T08:40:39;18.30;25.80
24217;DHT22;12356;49.386;8.688;2023-05-23T08:43:10;18.30;25.80
24217;DHT22;12356;49.386;8.688;2023-05-23T08:45:41;18.30;26.40
24217;DHT22;12356;49.386;8.688;2023-05-23T08:48:13;18.30;26.20
24217;DHT22;12356;49.386;8.688;2023-05-23T08:50:46;18.20;25.50
24217;DHT22;12356;49.386;8.688;2023-05-23T08:53:18;18.20;26.10
24217;DHT22;12356;49.386;8.688;2023-05-23T08:55:50;18.20;25.60
24217;DHT22;12356;49.386;8.688;2023-05-23T08:58:21;18.30;25.00
24217;DHT22;12356;49.386;8.688;2023-05-23T09:00:54;18.30;25.20
24217;DHT22;12356;49.386;8.688;2023-05-23T09:03:27;18.20;25.10
24217;DHT22;12356;49.386;8.688;2023-05-23T09:05:59;18.20;25.00
24217;DHT22;12356;49.386;8.688;2023-05-23T09:08:29;18.20;24.20
24217;DHT22;12356;49.386;8.688;2023-05-23T09:11:04;18.20;25.30
24217;DHT22;12356;49.386;8.688;2023-05-23T09:13:35;18.20;24.70
24217;DHT22;12356;49.386;8.688;2023-05-23T09:16:11;18.20;25.00
24217;DHT22;12356;49.386;8.688;2023-05-23T09:18:42;18.20;24.90
24217;DHT22;12356;49.386;8.688;2023-05-23T09:21:13;18.30;24.30
24217;DHT22;12356;49.386;8.688;2023-05-23T09:23:44;18.30;24.40
24217;DHT22;12356;49.386;8.688;2023-05-23T09:26:14;18.30;25.00
24217;DHT22;12356;49.386;8.688;2023-05-23T09:28:45;18.40;26.00
24217;DHT22;12356;49.386;8.688;2023-05-23T09:31:16;18.50;25.80
24217;DHT22;12356;49.386;8.688;2023-05-23T09:33:48;18.60;24.50
24217;DHT22;12356;49.386;8.688;2023-05-23T09:36:19;18.70;23.40
24217;DHT22;12356;49.386;8.688;2023-05-23T09:38:49;18.70;22.90
24217;DHT22;12356;49.386;8.688;2023-05-23T09:41:22;18.70;22.30
24217;DHT22;12356;49.386;8.688;2023-05-23T09:43:53;18.80;22.40
24217;DHT22;12356;49.386;8.688;2023-05-23T09:46:28;18.80;23.70
24217;DHT22;12356;49.386;8.688;2023-05-23T09:48:59;18.90;23.20
24217;DHT22;12356;49.386;8.688;2023-05-23T09:51:30;18.90;21.30
24217;DHT22;12356;49.386;8.688;2023-05-23T09:54:01;19.00;21.10
24217;DHT22;12356;49.386;8.688;2023-05-23T09:56:33;19.00;22.20
24217;DHT22;12356;49.386;8.688;2023-05-23T09:59:05;19.00;21.90
24217;DHT22;12356;49.386;8.688;2023-05-23T10:01:38;19.00;21.90
24217;DHT22;12356;49.386;8.688;2023-05-23T10:04:09;19.00;22.20
24217;DHT22;12356;49.386;8.688;2023-05-23T10:06:48;19.10;22.40
24217;DHT22;12356;49.386;8.688;2023-05-23T10:09:22;19.00;21.60
24217;DHT22;12356;49.386;8.688;2023-05-23T10:12:28;19.10;22.20
24217;DHT22;12356;49.386;8.688;2023-05-23T10:15:08;19.10;22.50
24217;DHT22;12356;49.386;8.688;2023-05-23T10:20:35;19.10;21.50
24217;DHT22;12356;49.386;8.688;2023-05-23T10:23:09;19.20;20.40
24217;DHT22;12356;49.386;8.688;2023-05-23T10:25:41;19.20;20.90
24217;DHT22;12356;49.386;8.688;2023-05-23T10:28:12;19.30;21.20
24217;DHT22;12356;49.386;8.688;2023-05-23T10:30:45;19.40;21.10
24217;DHT22;12356;49.386;8.688;2023-05-23T10:33:16;19.40;21.70
24217;DHT22;12356;49.386;8.688;2023-05-23T10:35:56;19.50;21.20
24217;DHT22;12356;49.386;8.688;2023-05-23T10:38:40;19.50;21.80
24217;DHT22;12356;49.386;8.688;2023-05-23T10:41:17;19.50;21.40
24217;DHT22;12356;49.386;8.688;2023-05-23T10:44:03;19.50;20.30
24217;DHT22;12356;49.386;8.688;2023-05-23T10:47:03;19.50;21.00
24217;DHT22;12356;49.386;8.688;2023-05-23T10:49:42;19.40;20.60
24217;DHT22;12356;49.386;8.688;2023-05-23T10:52:15;19.40;21.10
24217;DHT22;12356;49.386;8.688;2023-05-23T10:54:51;19.30;21.30
24217;DHT22;12356;49.386;8.688;2023-05-23T10:57:25;19.30;21.80
24217;DHT22;12356;49.386;8.688;2023-05-23T10:59:58;19.30;21.70
24217;DHT22;12356;49.386;8.688;2023-05-23T11:02:29;19.30;21.70
24217;DHT22;12356;49.386;8.688;2023-05-23T11:05:22;19.20;22.10
24217;DHT22;12356;49.386;8.688;2023-05-23T11:08:07;19.20;22.50
24217;DHT22;12356;49.386;8.688;2023-05-23T11:11:11;19.20;21.70
24217;DHT22;12356;49.386;8.688;2023-05-23T11:13:56;19.20;21.70
24217;DHT22;12356;49.386;8.688;2023-05-23T11:16:31;19.20;22.20
24217;DHT22;12356;49.386;8.688;2023-05-23T11:27:46;19.20;22.50
24217;DHT22;12356;49.386;8.688;2023-05-23T11:30:18;19.20;22.30
24217;DHT22;12356;49.386;8.688;2023-05-23T11:32:51;19.20;22.50
24217;DHT22;12356;49.386;8.688;2023-05-23T11:35:22;19.20;22.90
24217;DHT22;12356;49.386;8.688;2023-05-23T11:37:55;19.20;24.00
24217;DHT22;12356;49.386;8.688;2023-05-23T11:40:40;19.10;23.20
24217;DHT22;12356;49.386;8.688;2023-05-23T11:43:13;19.10;23.40
24217;DHT22;12356;49.386;8.688;2023-05-23T11:45:44;19.00;22.60
24217;DHT22;12356;49.386;8.688;2023-05-23T11:48:17;19.00;22.90
24217;DHT22;12356;49.386;8.688;2023-05-23T11:50:50;18.90;21.90
24217;DHT22;12356;49.386;8.688;2023-05-23T11:53:22;18.90;22.20
24217;DHT22;12356;49.386;8.688;2023-05-23T11:55:56;18.90;22.10
24217;DHT22;12356;49.386;8.688;2023-05-23T11:58:35;18.90;22.00
24217;DHT22;12356;49.386;8.688;2023-05-23T12:01:07;18.90;22.20
24217;DHT22;12356;49.386;8.688;2023-05-23T12:03:46;18.90;22.50
24217;DHT22;12356;49.386;8.688;2023-05-23T12:06:21;18.90;22.00
24217;DHT22;12356;49.386;8.688;2023-05-23T12:08:53;18.90;22.10
24217;DHT22;12356;49.386;8.688;2023-05-23T12:11:24;18.90;21.90
24217;DHT22;12356;49.386;8.688;2023-05-23T12:13:56;19.00;22.20
24217;DHT22;12356;49.386;8.688;2023-05-23T12:16:27;19.00;22.50
24217;DHT22;12356;49.386;8.688;2023-05-23T12:18:59;19.10;22.10
24217;DHT22;12356;49.386;8.688;2023-05-23T12:21:46;19.20;22.10
24217;DHT22;12356;49.386;8.688;2023-05-23T12:24:18;19.20;21.60
24217;DHT22;12356;49.386;8.688;2023-05-23T12:26:54;19.40;20.70
24217;DHT22;12356;49.386;8.688;2023-05-23T12:29:31;19.40;20.00
24217;DHT22;12356;49.386;8.688;2023-05-23T12:32:02;19.50;20.00
24217;DHT22;12356;49.386;8.688;2023-05-23T12:34:33;19.50;19.10
24217;DHT22;12356;49.386;8.688;2023-05-23T12:37:04;19.50;19.80
24217;DHT22;12356;49.386;8.688;2023-05-23T12:39:35;19.40;21.00
24217;DHT22;12356;49.386;8.688;2023-05-23T12:42:09;19.40;22.10
24217;DHT22;12356;49.386;8.688;2023-05-23T12:44:40;19.30;22.10
24217;DHT22;12356;49.386;8.688;2023-05-23T12:47:12;19.30;22.10
24217;DHT22;12356;49.386;8.688;2023-05-23T12:49:44;19.20;22.20
24217;DHT22;12356;49.386;8.688;2023-05-23T12:52:16;19.20;23.00
24217;DHT22;12356;49.386;8.688;2023-05-23T12:54:46;19.20;22.80
24217;DHT22;12356;49.386;8.688;2023-05-23T12:57:17;19.20;23.30
24217;DHT22;12356;49.386;8.688;2023-05-23T12:59:47;19.20;23.40
24217;DHT22;12356;49.386;8.688;2023-05-23T13:02:18;19.20;23.80
24217;DHT22;12356;49.386;8.688;2023-05-23T13:04:49;19.20;23.90
24217;DHT22;12356;49.386;8.688;2023-05-23T13:07:19;19.20;22.90
24217;DHT22;12356;49.386;8.688;2023-05-23T13:09:50;19.20;23.30
24217;DHT22;12356;49.386;8.688;2023-05-23T13:12:20;19.20;23.20
24217;DHT22;12356;49.386;8.688;2023-05-23T13:14:52;19.30;23.70
24217;DHT22;12356;49.386;8.688;2023-05-23T13:17:22;19.30;23.40
24217;DHT22;12356;49.386;8.688;2023-05-23T13:19:53;19.40;22.90
24217;DHT22;12356;49.386;8.688;2023-05-23T13:22:23;19.50;22.80
24217;DHT22;12356;49.386;8.688;2023-05-23T13:24:54;19.50;22.00
24217;DHT22;12356;49.386;8.688;2023-05-23T13:27:24;19.60;22.20
24217;DHT22;12356;49.386;8.688;2023-05-23T13:29:55;19.60;22.00
24217;DHT22;12356;49.386;8.688;2023-05-23T13:32:26;19.80;20.80
24217;DHT22;12356;49.386;8.688;2023-05-23T13:34:56;19.90;21.00
24217;DHT22;12356;49.386;8.688;2023-05-23T13:37:27;19.90;22.40
24217;DHT22;12356;49.386;8.688;2023-05-23T13:40:00;19.90;22.50
24217;DHT22;12356;49.386;8.688;2023-05-23T13:42:31;19.90;21.70
24217;DHT22;12356;49.386;8.688;2023-05-23T13:45:02;19.90;20.00
24217;DHT22;12356;49.386;8.688;2023-05-23T13:47:34;20.00;21.20
24217;DHT22;12356;49.386;8.688;2023-05-23T13:50:06;20.00;20.10
24217;DHT22;12356;49.386;8.688;2023-05-23T13:52:37;20.10;20.20
24217;DHT22;12356;49.386;8.688;2023-05-23T13:55:08;20.10;20.20
24217;DHT22;12356;49.386;8.688;2023-05-23T13:57:39;20.10;19.30
24217;DHT22;12356;49.386;8.688;2023-05-23T14:00:10;20.10;19.30
24217;DHT22;12356;49.386;8.688;2023-05-23T14:02:41;20.00;20.10
24217;DHT22;12356;49.386;8.688;2023-05-23T14:05:12;20.00;20.10
24217;DHT22;12356;49.386;8.688;2023-05-23T14:07:42;19.90;20.00
24217;DHT22;12356;49.386;8.688;2023-05-23T14:10:16;19.80;20.20
24217;DHT22;12356;49.386;8.688;2023-05-23T14:12:46;19.80;20.00
24217;DHT22;12356;49.386;8.688;2023-05-23T14:15:17;19.70;20.50
24217;DHT22;12356;49.386;8.688;2023-05-23T14:17:48;19.60;20.80
24217;DHT22;12356;49.386;8.688;2023-05-23T14:20:18;19.60;21.20
24217;DHT22;12356;49.386;8.688;2023-05-23T14:22:49;19.60;21.10
24217;DHT22;12356;49.386;8.688;2023-05-23T14:25:20;19.50;20.50
24217;DHT22;12356;49.386;8.688;2023-05-23T14:27:51;19.50;20.90
24217;DHT22;12356;49.386;8.688;2023-05-23T14:30:22;19.50;21.50
24217;DHT22;12356;49.386;8.688;2023-05-23T14:32:52;19.50;21.70
24217;DHT22;12356;49.386;8.688;2023-05-23T14:35:23;19.50;21.10
24217;DHT22;12356;49.386;8.688;2023-05-23T14:37:55;19.50;21.10
24217;DHT22;12356;49.386;8.688;2023-05-23T14:40:26;19.50;20.50
24217;DHT22;12356;49.386;8.688;2023-05-23T14:42:56;19.50;20.90
24217;DHT22;12356;49.386;8.688;2023-05-23T14:45:26;19.60;21.10
24217;DHT22;12356;49.386;8.688;2023-05-23T14:47:57;19.60;21.00
24217;DHT22;12356;49.386;8.688;2023-05-23T14:50:28;19.70;21.30
24217;DHT22;12356;49.386;8.688;2023-05-23T14:52:58;19.70;19.80
24217;DHT22;12356;49.386;8.688;2023-05-23T14:55:29;19.70;19.20
24217;DHT22;12356;49.386;8.688;2023-05-23T14:58:00;19.70;19.10
24217;DHT22;12356;49.386;8.688;2023-05-23T15:00:32;19.60;19.00
24217;DHT22;12356;49.386;8.688;2023-05-23T15:03:03;19.60;18.80
24217;DHT22;12356;49.386;8.688;2023-05-23T15:05:33;19.60;18.20
24217;DHT22;12356;49.386;8.688;2023-05-23T15:08:04;19.60;18.00
24217;DHT22;12356;49.386;8.688;2023-05-23T15:10:35;19.60;17.80
24217;DHT22;12356;49.386;8.688;2023-05-23T15:13:05;19.50;17.40
24217;DHT22;12356;49.386;8.688;2023-05-23T15:15:36;19.50;17.50
24217;DHT22;12356;49.386;8.688;2023-05-23T15:18:07;19.40;18.10
24217;DHT22;12356;49.386;8.688;2023-05-23T15:20:39;19.40;18.70
24217;DHT22;12356;49.386;8.688;2023-05-23T15:23:09;19.40;19.10
24217;DHT22;12356;49.386;8.688;2023-05-23T15:25:40;19.50;19.30
24217;DHT22;12356;49.386;8.688;2023-05-23T15:28:10;19.60;18.70
24217;DHT22;12356;49.386;8.688;2023-05-23T15:30:42;19.70;18.30
24217;DHT22;12356;49.386;8.688;2023-05-23T15:33:12;19.80;18.20
24217;DHT22;12356;49.386;8.688;2023-05-23T15:35:45;19.80;17.10
24217;DHT22;12356;49.386;8.688;2023-05-23T15:38:15;19.80;17.00
24217;DHT22;12356;49.386;8.688;2023-05-23T15:40:46;19.80;18.10
24217;DHT22;12356;49.386;8.688;2023-05-23T15:43:17;19.80;17.10
24217;DHT22;12356;49.386;8.688;2023-05-23T15:45:49;19.80;16.50
24217;DHT22;12356;49.386;8.688;2023-05-23T15:48:20;19.90;16.30
24217;DHT22;12356;49.386;8.688;2023-05-23T15:50:50;19.90;16.90
24217;DHT22;12356;49.386;8.688;2023-05-23T15:53:21;19.90;16.80
24217;DHT22;12356;49.386;8.688;2023-05-23T15:55:51;19.90;16.90
24217;DHT22;12356;49.386;8.688;2023-05-23T15:58:22;19.90;16.90
24217;DHT22;12356;49.386;8.688;2023-05-23T16:00:52;19.80;16.70
24217;DHT22;12356;49.386;8.688;2023-05-23T16:03:23;19.80;16.20
24217;DHT22;12356;49.386;8.688;2023-05-23T16:05:55;19.70;16.50
24217;DHT22;12356;49.386;8.688;2023-05-23T16:08:25;19.60;16.30
24217;DHT22;12356;49.386;8.688;2023-05-23T16:10:56;19.60;16.10
24217;DHT22;12356;49.386;8.688;2023-05-23T16:13:27;19.50;16.40
24217;DHT22;12356;49.386;8.688;2023-05-23T16:15:57;19.50;17.10